createdAt,value
2023-09-14T00:03:14.716Z,35.47
2023-09-14T00:08:18.054Z,35.63
2023-09-14T00:13:20.195Z,35.57
2023-09-14T00:18:22.866Z,35.63
2023-09-14T00:23:25.097Z,35.90
2023-09-14T00:28:27.280Z,36.03
2023-09-14T00:33:29.462Z,36.67
2023-09-14T00:38:31.595Z,35.70
2023-09-14T00:43:35.609Z,36.33
2023-09-14T00:48:38.942Z,34.93
2023-09-14T00:53:41.516Z,36.47
2023-09-14T00:58:44.042Z,36.27
2023-09-14T01:03:47.089Z,37.00
2023-09-14T01:08:50.589Z,35.87
2023-09-14T01:14:48.793Z,35.97
2023-09-14T01:20:17.716Z,35.47
2023-09-14T01:25:46.908Z,35.60
2023-09-14T01:30:49.964Z,35.47
2023-09-14T01:35:57.981Z,35.57
2023-09-14T01:41:02.508Z,35.13
2023-09-14T01:46:05.800Z,36.53
2023-09-14T01:51:08.115Z,35.33
2023-09-14T01:56:10.361Z,35.60
2023-09-14T02:01:14.360Z,35.40
2023-09-14T02:06:16.644Z,34.83
2023-09-14T02:11:18.830Z,34.70
2023-09-14T02:16:21.047Z,35.33
2023-09-14T02:21:23.249Z,34.80
2023-09-14T02:26:25.431Z,35.23
2023-09-14T02:31:27.856Z,35.67
2023-09-14T02:36:30.117Z,34.93
2023-09-14T02:41:33.741Z,35.20
2023-09-14T02:46:35.969Z,35.07
2023-09-14T02:51:38.154Z,35.23
2023-09-14T02:56:41.689Z,35.10
2023-09-14T03:01:50.979Z,35.10
2023-09-14T03:06:55.868Z,35.07
2023-09-14T03:11:58.421Z,34.97
2023-09-14T03:17:00.767Z,35.17
2023-09-14T03:22:04.048Z,34.97
2023-09-14T03:27:06.636Z,35.27
2023-09-14T03:32:09.501Z,35.07
2023-09-14T03:37:12.120Z,34.30
2023-09-14T03:42:14.420Z,33.33
2023-09-14T03:47:17.364Z,33.37
2023-09-14T03:52:19.526Z,32.53
2023-09-14T03:57:22.375Z,31.70
2023-09-14T04:02:25.606Z,31.83
2023-09-14T04:07:27.799Z,31.90
2023-09-14T04:12:29.946Z,33.13
2023-09-14T04:17:32.216Z,32.80
2023-09-14T04:22:35.589Z,32.80
2023-09-14T04:27:37.874Z,32.97
2023-09-14T04:32:40.359Z,33.00
2023-09-14T04:37:42.707Z,31.93
2023-09-14T04:42:45.008Z,31.90
2023-09-14T04:47:47.671Z,31.50
2023-09-14T04:52:50.578Z,33.17
2023-09-14T04:57:53.450Z,33.30
2023-09-14T05:02:56.610Z,34.27
2023-09-14T05:08:00.047Z,33.10
2023-09-14T05:13:03.969Z,31.83
2023-09-14T05:18:07.992Z,31.90
2023-09-14T05:23:10.557Z,32.77
2023-09-14T05:28:13.964Z,32.77
2023-09-14T05:33:16.570Z,33.20
2023-09-14T05:38:18.889Z,32.13
2023-09-14T05:43:21.234Z,32.03
2023-09-14T05:48:24.880Z,33.70
2023-09-14T05:53:27.039Z,32.63
2023-09-14T05:58:29.292Z,33.50
2023-09-14T06:03:31.771Z,33.73
2023-09-14T06:08:34.909Z,33.57
2023-09-14T06:13:37.174Z,34.30
2023-09-14T06:18:39.315Z,33.90
2023-09-14T06:23:41.765Z,34.63
2023-09-14T06:28:44.475Z,34.77
2023-09-14T06:33:47.048Z,35.27
2023-09-14T06:38:49.961Z,35.40
2023-09-14T06:43:52.162Z,34.47
2023-09-14T06:48:54.328Z,34.27
2023-09-14T06:53:56.544Z,35.40
2023-09-14T06:58:58.843Z,35.13
2023-09-14T07:04:01.779Z,35.07
2023-09-14T07:09:05.825Z,35.13
2023-09-14T07:14:08.102Z,34.53
2023-09-14T07:19:10.544Z,34.63
2023-09-14T07:24:13.297Z,34.63
2023-09-14T07:29:15.472Z,35.13
2023-09-14T07:34:18.071Z,34.80
2023-09-14T07:39:21.933Z,35.03
2023-09-14T07:44:24.813Z,34.73
2023-09-14T07:49:27.052Z,34.57
2023-09-14T07:54:29.325Z,34.73
2023-09-14T07:59:31.525Z,35.03
2023-09-14T08:04:33.996Z,34.77
2023-09-14T08:09:36.200Z,34.67
2023-09-14T08:14:38.738Z,34.37
2023-09-14T08:19:41.077Z,34.10
2023-09-14T08:24:43.281Z,34.00
2023-09-14T08:29:46.633Z,32.83
2023-09-14T08:34:48.933Z,32.67
2023-09-14T08:39:53.057Z,32.03
2023-09-14T08:44:56.549Z,32.40
2023-09-14T08:50:01.693Z,31.77
2023-09-14T08:55:04.895Z,31.13
2023-09-14T09:00:16.539Z,31.30
2023-09-14T09:05:20.841Z,31.20
2023-09-14T09:10:29.957Z,31.10
2023-09-14T09:15:36.368Z,31.77
2023-09-14T09:20:47.380Z,32.10
2023-09-14T09:25:54.472Z,32.20
2023-09-14T09:30:56.800Z,33.10
2023-09-14T09:36:01.933Z,33.83
2023-09-14T09:41:12.950Z,32.33
2023-09-14T09:46:18.749Z,32.47
2023-09-14T09:51:25.924Z,31.80
2023-09-14T09:56:28.255Z,32.47
2023-09-14T10:01:31.720Z,32.67
2023-09-14T10:06:34.483Z,34.07
2023-09-14T10:11:38.193Z,34.27
2023-09-14T10:16:45.821Z,34.90
2023-09-14T10:21:53.875Z,35.53
2023-09-14T10:26:57.654Z,35.47
2023-09-14T10:32:02.253Z,35.40
2023-09-14T10:37:05.968Z,35.33
2023-09-14T10:42:08.170Z,35.30
2023-09-14T10:47:14.763Z,35.23
2023-09-14T10:52:26.291Z,35.27
2023-09-14T10:57:30.953Z,34.47
2023-09-14T11:02:49.641Z,36.20
2023-09-14T11:08:02.769Z,35.87
2023-09-14T11:13:20.917Z,36.97
2023-09-14T11:18:59.364Z,37.27
2023-09-14T11:24:09.180Z,37.93
2023-09-14T11:29:13.546Z,37.57
2023-09-14T11:34:19.578Z,39.07
2023-09-14T11:39:25.572Z,38.20
2023-09-14T11:44:45.039Z,37.93
2023-09-14T11:49:51.373Z,37.93
2023-09-14T11:54:54.342Z,37.83
2023-09-14T11:59:56.928Z,36.90
2023-09-14T12:04:59.628Z,36.90
2023-09-14T12:10:03.286Z,36.47
2023-09-14T12:15:06.340Z,36.33
2023-09-14T12:20:12.944Z,35.27
2023-09-14T12:25:18.238Z,36.23
2023-09-14T12:30:21.139Z,35.27
2023-09-14T12:35:25.852Z,36.77
2023-09-14T12:40:28.850Z,34.90
2023-09-14T12:45:36.612Z,35.37
2023-09-14T12:50:39.589Z,33.53
2023-09-14T12:55:46.144Z,36.90
2023-09-14T13:00:50.639Z,35.13
2023-09-14T13:05:59.631Z,35.17
2023-09-14T13:11:06.567Z,36.07
2023-09-14T13:16:09.157Z,35.77
2023-09-14T13:21:11.869Z,35.10
2023-09-14T13:26:14.479Z,36.13
2023-09-14T13:31:17.264Z,37.07
2023-09-14T13:36:20.060Z,37.00
2023-09-14T13:41:22.617Z,37.33
2023-09-14T13:46:25.199Z,36.87
2023-09-14T13:51:27.811Z,37.30
2023-09-14T13:56:30.355Z,37.50
2023-09-14T14:01:33.665Z,38.30
2023-09-14T14:06:36.600Z,38.00
2023-09-14T14:11:39.277Z,38.20
2023-09-14T14:16:44.035Z,38.47
2023-09-14T14:21:46.874Z,39.40
2023-09-14T14:26:52.726Z,37.70
2023-09-14T14:31:55.324Z,37.80
2023-09-14T14:36:58.566Z,38.23
2023-09-14T14:42:01.221Z,38.80
2023-09-14T14:47:03.902Z,38.13
2023-09-14T14:52:06.697Z,37.50
2023-09-14T14:57:09.401Z,37.07
2023-09-14T15:02:12.016Z,37.63
2023-09-14T15:07:15.304Z,37.50
2023-09-14T15:12:17.913Z,37.60
2023-09-14T15:17:20.599Z,37.10
2023-09-14T15:22:23.172Z,36.97
2023-09-14T15:27:25.834Z,36.87
2023-09-14T15:32:28.580Z,36.40
2023-09-14T15:37:31.064Z,36.50
2023-09-14T15:42:34.281Z,36.67
2023-09-14T15:47:36.951Z,37.23
2023-09-14T15:52:42.302Z,36.80
2023-09-14T15:57:45.892Z,36.47
2023-09-14T16:02:48.595Z,36.47
2023-09-14T16:08:05.587Z,37.43
2023-09-14T16:13:10.949Z,36.67
2023-09-14T16:18:14.025Z,37.33
2023-09-14T16:23:16.929Z,36.70
2023-09-14T16:28:19.479Z,37.87
2023-09-14T16:33:22.082Z,36.90
2023-09-14T16:38:25.073Z,36.83
2023-09-14T16:43:28.193Z,36.93
2023-09-14T16:48:37.372Z,35.80
2023-09-14T16:53:40.007Z,37.63
2023-09-14T16:58:42.607Z,36.43
2023-09-14T17:03:45.143Z,37.03
2023-09-14T17:08:48.399Z,36.70
2023-09-14T17:13:51.167Z,37.83
2023-09-14T17:18:54.036Z,37.80
2023-09-14T17:24:46.036Z,36.73
2023-09-14T17:29:48.636Z,37.27
2023-09-14T17:34:51.315Z,37.17
2023-09-14T17:39:54.193Z,36.67
2023-09-14T17:44:56.872Z,36.57
2023-09-14T17:49:59.955Z,36.50
2023-09-14T17:55:02.512Z,36.47
2023-09-14T18:00:14.370Z,37.60
2023-09-14T18:05:17.256Z,36.97
2023-09-14T18:10:20.305Z,35.83
2023-09-14T18:15:22.863Z,35.83
2023-09-14T18:20:25.513Z,35.77
2023-09-14T18:25:28.254Z,35.50
2023-09-14T18:30:30.936Z,36.43
2023-09-14T18:35:33.626Z,36.60
2023-09-14T18:40:36.198Z,35.40
2023-09-14T18:45:38.797Z,35.63
2023-09-14T18:50:41.357Z,36.40
2023-09-14T18:55:49.289Z,35.33
2023-09-14T19:00:52.370Z,36.43
2023-09-14T19:05:56.676Z,36.37
2023-09-14T19:10:59.239Z,36.10
2023-09-14T19:16:01.986Z,36.77
2023-09-14T19:21:04.637Z,36.73
2023-09-14T19:26:07.323Z,36.60
2023-09-14T19:31:16.412Z,37.17
2023-09-14T19:36:21.288Z,36.53
2023-09-14T19:41:23.893Z,35.40
2023-09-14T19:46:26.757Z,35.07
2023-09-14T19:51:29.455Z,36.57
2023-09-14T19:56:32.118Z,35.77
2023-09-14T20:01:34.850Z,35.33
2023-09-14T20:06:37.594Z,35.50
2023-09-14T20:11:41.054Z,35.10
2023-09-14T20:16:45.037Z,36.57
2023-09-14T20:21:47.768Z,34.70
2023-09-14T20:26:50.444Z,35.70
2023-09-14T20:31:53.032Z,36.37
2023-09-14T20:36:55.846Z,37.13
2023-09-14T20:41:58.522Z,36.20
2023-09-14T20:47:01.220Z,35.73
2023-09-14T20:52:04.345Z,35.73
2023-09-14T20:57:07.980Z,36.00
2023-09-14T21:02:10.624Z,35.73
2023-09-14T21:07:13.352Z,34.73
2023-09-14T21:12:15.909Z,35.77
2023-09-14T21:17:18.142Z,34.23
2023-09-14T21:22:20.302Z,33.77
2023-09-14T21:27:22.559Z,34.47
2023-09-14T21:32:24.770Z,34.57
2023-09-14T21:37:27.045Z,34.50
2023-09-14T21:42:29.457Z,34.73
2023-09-14T21:47:31.939Z,34.90
2023-09-14T21:52:34.506Z,34.50
2023-09-14T21:57:36.870Z,35.77
2023-09-14T22:02:39.193Z,34.93
2023-09-14T22:07:41.550Z,36.27
2023-09-14T22:12:43.698Z,35.57
2023-09-14T22:17:45.984Z,34.77
2023-09-14T22:22:51.180Z,35.30
2023-09-14T22:27:53.542Z,34.60
2023-09-14T22:32:55.728Z,34.93
2023-09-14T22:37:58.035Z,35.43
2023-09-14T22:43:00.306Z,34.60
2023-09-14T22:48:02.599Z,34.50
2023-09-14T22:53:04.989Z,34.33
2023-09-14T22:58:07.321Z,34.87
2023-09-14T23:03:09.656Z,34.27
2023-09-14T23:08:11.932Z,34.17
2023-09-14T23:13:14.145Z,33.50
2023-09-14T23:18:16.705Z,33.17
2023-09-14T23:23:22.042Z,33.83
2023-09-14T23:28:24.285Z,33.33
2023-09-14T23:33:30.865Z,34.00
2023-09-14T23:38:33.274Z,34.10
2023-09-14T23:43:35.910Z,34.53
2023-09-14T23:48:38.281Z,33.80
2023-09-14T23:53:40.443Z,34.33
2023-09-14T23:58:43.916Z,34.13
